Terminal Aerodrome Forecast
Issued by NWS Lake Charles, LA

Home | Current Version | Previous Version | Text Only | Print | Product List | Glossary On
Versions: 1 2 3 4 5 6 7 8 9 10 11 12 13 14 15 16 17 18
000
FTUS44 KLCH 011300 AAA
TAFBPT
TAF AMD
KBPT 011327Z 0113/0212 15004KT 3SM BR BKN003 OVC040
     FM011500 20012KT P6SM -RA SCT009 OVC023
     FM020000 29008KT P6SM -RA OVC015
     FM020300 35012KT P6SM OVC015
     FM020600 35015KT P6SM OVC100=

USA.gov is the U.S. government's official web portal to all federal, state and local government web resources and services.